Time;durP1;ratioP1;P1;durP2;ratioP2;P2;SDS_P1;SDS_P2;PMS_P1;PMS_P2;Temp;Humidity;BMP_temperature;BMP_pressure;BME280_temperature;BME280_humidity;BME280_pressure;Samples;Min_cycle;Max_cycle;Signal;HPM_P1;HPM_P2
2022/08/30 00:03:20;;;;;;;14.40;9.58;;;;;;;21.15;79.91;99129.84;1720785;83;20988;-82
2022/08/30 00:05:47;;;;;;;17.65;10.10;;;;;;;21.13;79.64;99128.23;1736580;83;21043;-81
2022/08/30 00:08:13;;;;;;;18.05;9.50;;;;;;;21.12;79.44;99132.69;1768443;80;21490;-82
2022/08/30 00:10:41;;;;;;;16.20;10.35;;;;;;;21.13;78.99;99130.42;1768721;81;21057;-82
2022/08/30 00:13:11;;;;;;;19.23;9.88;;;;;;;21.10;79.67;99132.42;1751009;80;20960;-82
2022/08/30 00:15:39;;;;;;;17.00;9.53;;;;;;;21.09;79.83;99128.95;1745065;81;20989;-83
2022/08/30 00:18:06;;;;;;;13.88;9.18;;;;;;;21.06;80.20;99135.27;1751590;81;20965;-82
2022/08/30 00:20:34;;;;;;;15.48;8.70;;;;;;;21.05;79.55;99124.34;1768974;80;20973;-82
2022/08/30 00:23:01;;;;;;;21.35;10.00;;;;;;;20.97;81.30;99137.23;1745115;82;20955;-82
2022/08/30 00:25:28;;;;;;;20.45;10.00;;;;;;;20.97;79.64;99137.23;1758935;81;22182;-82
2022/08/30 00:27:55;;;;;;;16.67;9.05;;;;;;;20.86;80.69;99132.64;1695292;84;20991;-81
2022/08/30 00:30:22;;;;;;;17.02;8.93;;;;;;;20.86;80.02;99138.41;1738628;81;21042;-81
2022/08/30 00:32:48;;;;;;;16.52;9.60;;;;;;;20.77;80.23;99142.52;1776284;80;20980;-82
2022/08/30 00:35:19;;;;;;;16.48;10.28;;;;;;;20.74;80.41;99144.03;1803809;79;20971;-82
2022/08/30 00:37:47;;;;;;;13.15;9.10;;;;;;;20.73;80.06;99151.61;1803127;78;20975;-83
2022/08/30 00:40:15;;;;;;;16.15;8.58;;;;;;;20.69;80.02;99151.44;1802820;79;20995;-82
2022/08/30 00:42:43;;;;;;;13.05;8.40;;;;;;;20.61;81.44;99147.11;1745220;80;20963;-81
2022/08/30 00:45:18;;;;;;;13.35;8.68;;;;;;;20.57;80.30;99151.73;1749888;80;21459;-83
2022/08/30 00:47:45;;;;;;;17.90;8.63;;;;;;;20.51;80.56;99157.39;1728905;82;21054;-82
2022/08/30 00:50:15;;;;;;;17.45;9.33;;;;;;;20.49;80.31;99159.77;1751001;82;20996;-82
2022/08/30 00:52:46;;;;;;;17.48;9.53;;;;;;;20.45;80.61;99152.51;1738808;82;20987;-80
2022/08/30 00:55:15;;;;;;;13.62;8.83;;;;;;;20.40;80.53;99154.62;1736442;82;20995;-81
2022/08/30 00:57:46;;;;;;;13.50;8.88;;;;;;;20.38;80.70;99156.52;1756866;82;21718;-83
2022/08/30 01:00:15;;;;;;;16.77;9.08;;;;;;;20.36;80.68;99159.24;1753281;82;21017;-82
2022/08/30 01:02:42;;;;;;;15.68;8.75;;;;;;;20.36;80.60;99159.72;1732139;82;20988;-82
2022/08/30 01:05:11;;;;;;;16.37;9.23;;;;;;;20.37;80.74;99162.72;1752454;81;20986;-82
2022/08/30 01:07:39;;;;;;;21.07;11.10;;;;;;;20.38;80.96;99166.59;1752230;81;20972;-82
2022/08/30 01:10:10;;;;;;;18.07;11.63;;;;;;;20.39;80.56;99164.34;1743216;82;21033;-83
2022/08/30 01:12:41;;;;;;;17.77;11.33;;;;;;;20.37;79.74;99162.27;1743981;82;21016;-82
2022/08/30 01:15:13;;;;;;;18.90;10.80;;;;;;;20.32;79.68;99162.19;1721739;82;21009;-83
2022/08/30 01:17:43;;;;;;;16.85;10.80;;;;;;;20.22;79.78;99162.77;1751675;81;21013;-81
2022/08/30 01:20:15;;;;;;;18.90;11.38;;;;;;;20.18;79.81;99155.16;1728058;81;21022;-82
2022/08/30 01:23:01;;;;;;;17.27;10.43;;;;;;;20.15;79.79;99164.57;1734256;82;21017;-82
2022/08/30 01:25:30;;;;;;;15.63;10.10;;;;;;;20.11;79.78;99163.07;1752059;82;21054;-81
2022/08/30 01:28:02;;;;;;;14.98;9.70;;;;;;;20.04;79.79;99167.42;1741910;82;21007;-82
2022/08/30 01:30:31;;;;;;;17.82;9.38;;;;;;;19.98;80.16;99170.92;1741580;82;21035;-81
2022/08/30 01:33:02;;;;;;;16.35;9.98;;;;;;;19.93;81.65;99170.36;1753018;82;21037;-82
2022/08/30 01:35:33;;;;;;;14.13;9.33;;;;;;;19.90;81.22;99166.12;1731994;81;20969;-82
2022/08/30 01:38:00;;;;;;;13.60;8.85;;;;;;;19.89;82.35;99160.45;1733740;82;20953;-83
2022/08/30 01:40:27;;;;;;;15.25;9.53;;;;;;;19.89;81.67;99169.69;1754210;81;21022;-82
2022/08/30 01:42:54;;;;;;;18.32;9.63;;;;;;;19.85;81.57;99165.55;1753470;81;21029;-82
2022/08/30 01:45:20;;;;;;;18.62;9.50;;;;;;;19.82;81.47;99170.55;1753148;81;20958;-82
2022/08/30 01:47:48;;;;;;;17.70;9.45;;;;;;;19.79;81.22;99172.05;1743731;81;20996;-82
2022/08/30 01:50:15;;;;;;;19.17;9.83;;;;;;;19.77;81.69;99161.22;1754469;82;20994;-81
2022/08/30 01:52:42;;;;;;;16.23;9.13;;;;;;;19.76;82.16;99159.55;1757473;80;21020;-82
2022/08/30 01:55:09;;;;;;;14.20;8.85;;;;;;;19.76;81.82;99154.27;1754948;81;21056;-80
2022/08/30 01:57:35;;;;;;;15.40;8.25;;;;;;;19.79;82.20;99155.38;1754566;80;21089;-80
2022/08/30 02:00:06;;;;;;;17.42;8.48;;;;;;;19.82;82.05;99161.80;1742787;81;21029;-81
2022/08/30 02:02:35;;;;;;;11.73;8.65;;;;;;;19.83;82.03;99169.59;1726722;81;21105;-80
2022/08/30 02:05:05;;;;;;;16.05;8.98;;;;;;;19.85;81.36;99167.70;1755029;81;21367;-82
2022/08/30 02:07:31;;;;;;;16.17;8.25;;;;;;;19.85;82.16;99167.70;1755242;81;20955;-82
2022/08/30 02:09:58;;;;;;;16.55;9.05;;;;;;;19.86;81.46;99163.30;1740177;81;20996;-82
2022/08/30 02:12:25;;;;;;;15.68;9.08;;;;;;;19.86;81.39;99167.27;1716704;83;21015;-83
2022/08/30 02:14:52;;;;;;;16.60;9.10;;;;;;;19.84;81.86;99169.15;1740425;81;20986;-83
2022/08/30 02:17:18;;;;;;;18.40;8.80;;;;;;;19.81;82.25;99165.37;1755460;82;20971;-81
2022/08/30 02:19:45;;;;;;;19.30;9.03;;;;;;;19.79;82.02;99168.58;1755193;81;21021;-82
2022/08/30 02:22:12;;;;;;;15.08;8.38;;;;;;;19.77;82.49;99167.82;1732753;81;21501;-81
2022/08/30 02:24:39;;;;;;;18.37;8.90;;;;;;;19.71;82.41;99174.77;1747701;82;21017;-81
2022/08/30 02:27:06;;;;;;;17.50;9.05;;;;;;;19.65;82.52;99172.86;1753613;81;21027;-82
2022/08/30 02:29:33;;;;;;;16.70;8.55;;;;;;;19.66;82.69;99173.26;1755056;81;21002;-82
2022/08/30 02:31:59;;;;;;;15.05;8.60;;;;;;;19.70;82.71;99175.72;1754675;81;20971;-82
2022/08/30 02:34:26;;;;;;;13.32;8.25;;;;;;;19.65;82.49;99182.58;1749021;81;21006;-82
2022/08/30 02:36:53;;;;;;;19.10;8.60;;;;;;;19.65;82.93;99179.94;1754756;80;20931;-82
2022/08/30 02:39:19;;;;;;;16.48;9.73;;;;;;;19.67;82.58;99181.53;1751162;81;21045;-82
2022/08/30 02:41:46;;;;;;;16.25;10.48;;;;;;;19.68;84.29;99176.65;1755201;80;20986;-83
2022/08/30 02:44:13;;;;;;;18.85;10.90;;;;;;;19.69;84.05;99169.58;1772463;80;20970;-82
2022/08/30 02:46:40;;;;;;;20.02;11.03;;;;;;;19.66;84.15;99170.63;1761870;81;21661;-82
2022/08/30 02:49:07;;;;;;;18.60;10.82;;;;;;;19.65;84.22;99174.19;1757910;80;21008;-83
2022/08/30 02:51:35;;;;;;;20.17;11.93;;;;;;;19.63;86.10;99173.43;1779222;81;20932;-82
2022/08/30 02:54:01;;;;;;;21.00;12.03;;;;;;;19.57;86.60;99172.97;1723794;81;20958;-82
2022/08/30 02:56:28;;;;;;;22.42;12.82;;;;;;;19.55;86.58;99165.63;1771570;80;20995;-82
2022/08/30 02:58:55;;;;;;;18.12;10.50;;;;;;;19.50;87.72;99169.87;1759755;81;21047;-81
2022/08/30 03:01:22;;;;;;;18.52;10.35;;;;;;;19.53;85.74;99177.58;1775568;80;21036;-82
2022/08/30 03:03:49;;;;;;;18.05;10.18;;;;;;;19.46;86.10;99178.91;1762068;81;21019;-81
2022/08/30 03:06:16;;;;;;;26.68;11.33;;;;;;;19.47;86.26;99173.99;1762311;81;21018;-83
2022/08/30 03:08:43;;;;;;;19.92;10.95;;;;;;;19.47;84.90;99177.95;1762787;81;21533;-82
2022/08/30 03:11:12;;;;;;;17.82;10.58;;;;;;;19.45;86.04;99182.47;1762698;81;20973;-82
2022/08/30 03:13:39;;;;;;;28.10;11.73;;;;;;;19.46;85.13;99180.22;1763061;81;21023;-81
2022/08/30 03:16:05;;;;;;;15.98;10.08;;;;;;;19.43;85.59;99184.34;1762848;81;21071;-83
2022/08/30 03:18:32;;;;;;;21.52;11.25;;;;;;;19.42;85.19;99186.63;1758901;81;20969;-82
2022/08/30 03:20:59;;;;;;;26.02;12.13;;;;;;;19.41;86.38;99186.23;1737590;82;20997;-82
2022/08/30 03:23:25;;;;;;;23.73;11.75;;;;;;;19.42;85.37;99185.30;1779105;80;21005;-82
2022/08/30 03:25:52;;;;;;;18.57;11.68;;;;;;;19.41;85.53;99189.70;1768839;80;21068;-81
2022/08/30 03:28:19;;;;;;;18.00;11.35;;;;;;;19.39;85.85;99192.91;1727618;83;21010;-82
2022/08/30 03:30:46;;;;;;;29.72;12.05;;;;;;;19.42;86.04;99189.26;1745642;81;21478;-83
2022/08/30 03:33:12;;;;;;;22.32;12.13;;;;;;;19.46;87.11;99192.09;1748222;81;21013;-81
2022/08/30 03:35:39;;;;;;;29.10;13.10;;;;;;;19.34;86.91;99175.22;1749114;82;20977;-82
2022/08/30 03:38:06;;;;;;;29.52;11.53;;;;;;;19.50;86.72;99197.55;1751110;82;21038;-82
2022/08/30 03:40:32;;;;;;;24.75;11.97;;;;;;;19.51;86.09;99193.12;1775946;80;21013;-82
2022/08/30 03:42:59;;;;;;;23.83;12.30;;;;;;;19.51;88.24;99191.80;1758495;82;21496;-82
2022/08/30 03:45:26;;;;;;;21.90;12.35;;;;;;;19.50;87.42;99202.83;1732528;79;21022;-83
2022/08/30 03:47:53;;;;;;;22.37;12.43;;;;;;;19.48;87.32;99201.59;1779592;80;20955;-83
2022/08/30 03:50:19;;;;;;;22.87;13.53;;;;;;;19.39;88.67;99202.13;1770686;77;21010;-82
2022/08/30 03:52:46;;;;;;;20.00;12.65;;;;;;;19.35;89.20;99201.10;1745550;80;21021;-82
2022/08/30 03:55:13;;;;;;;21.70;12.93;;;;;;;19.33;88.05;99205.62;1764108;80;20993;-81
2022/08/30 03:57:41;;;;;;;25.15;11.45;;;;;;;19.28;89.44;99211.17;1762520;80;21054;-80
2022/08/30 04:00:09;;;;;;;22.42;12.18;;;;;;;19.26;87.78;99202.50;1778612;80;20996;-81
2022/08/30 04:02:40;;;;;;;17.67;11.28;;;;;;;19.22;87.90;99204.47;1777709;81;21017;-80
2022/08/30 04:05:11;;;;;;;20.27;11.40;;;;;;;19.22;88.16;99208.42;1778397;81;21528;-82
2022/08/30 04:07:39;;;;;;;15.93;10.63;;;;;;;19.24;87.35;99206.55;1755859;81;21027;-81
2022/08/30 04:10:08;;;;;;;20.70;10.15;;;;;;;19.20;87.17;99208.98;1778528;80;21005;-80
2022/08/30 04:12:35;;;;;;;19.25;10.72;;;;;;;19.16;86.67;99207.91;1771266;80;21074;-81
2022/08/30 04:15:03;;;;;;;21.62;9.80;;;;;;;19.15;86.25;99209.70;1749065;82;21482;-81
2022/08/30 04:17:30;;;;;;;21.05;10.25;;;;;;;19.10;86.40;99211.78;1738356;81;21023;-82
2022/08/30 04:19:57;;;;;;;18.23;10.85;;;;;;;19.07;86.02;99214.10;1729109;81;21075;-83
2022/08/30 04:22:24;;;;;;;19.57;11.35;;;;;;;19.05;85.97;99217.77;1734603;81;20991;-82
2022/08/30 04:24:50;;;;;;;28.20;12.03;;;;;;;19.02;85.74;99209.59;1777955;81;21016;-82
2022/08/30 04:27:19;;;;;;;24.37;11.57;;;;;;;18.98;87.23;99217.29;1757666;82;20958;-82
2022/08/30 04:29:46;;;;;;;23.05;12.43;;;;;;;18.98;86.74;99217.73;1760325;81;20990;-81
2022/08/30 04:32:14;;;;;;;23.77;12.75;;;;;;;18.99;86.64;99212.86;1763838;80;21002;-82
2022/08/30 04:34:40;;;;;;;21.73;12.55;;;;;;;18.98;86.72;99213.78;1757830;82;21023;-82
2022/08/30 04:37:07;;;;;;;21.45;13.60;;;;;;;18.97;87.97;99219.53;1779524;80;21536;-82
2022/08/30 04:39:34;;;;;;;22.87;13.70;;;;;;;18.87;88.55;99223.16;1754592;81;21037;-81
2022/08/30 04:42:02;;;;;;;25.65;12.98;;;;;;;18.87;88.05;99229.75;1754574;82;21033;-82
2022/08/30 04:44:30;;;;;;;24.07;12.88;;;;;;;18.83;88.79;99233.48;1766013;79;20995;-82
2022/08/30 04:46:57;;;;;;;25.40;13.18;;;;;;;18.87;89.36;99232.38;1757857;82;21437;-81
2022/08/30 04:49:24;;;;;;;26.15;12.10;;;;;;;18.86;88.34;99224.55;1734118;81;20966;-81
2022/08/30 04:51:51;;;;;;;25.85;12.03;;;;;;;18.90;89.35;99227.42;1741073;82;21038;-80
2022/08/30 04:54:17;;;;;;;23.92;12.75;;;;;;;18.86;90.79;99232.02;1749770;81;21011;-81
2022/08/30 04:56:44;;;;;;;24.35;14.85;;;;;;;18.91;91.03;99229.58;1755426;80;21034;-82
2022/08/30 04:59:12;;;;;;;31.25;14.43;;;;;;;18.96;91.24;99235.42;1759346;81;21028;-81
2022/08/30 05:01:39;;;;;;;27.77;14.68;;;;;;;19.02;89.62;99232.42;1780006;80;20981;-80
2022/08/30 05:04:06;;;;;;;23.60;13.22;;;;;;;19.04;89.63;99230.58;1763927;81;21496;-82
2022/08/30 05:06:32;;;;;;;23.15;12.18;;;;;;;19.07;89.79;99234.34;1753626;80;21006;-81
2022/08/30 05:09:00;;;;;;;23.15;11.63;;;;;;;19.13;89.70;99239.25;1814614;79;21015;-82
2022/08/30 05:11:27;;;;;;;20.92;12.25;;;;;;;19.15;89.58;99240.02;1792719;79;20964;-82
2022/08/30 05:13:55;;;;;;;22.58;12.78;;;;;;;19.11;89.91;99239.81;1793048;79;21619;-82
2022/08/30 05:16:21;;;;;;;23.38;12.85;;;;;;;19.15;89.99;99243.12;1764926;80;21029;-82
2022/08/30 05:18:50;;;;;;;23.45;11.68;;;;;;;19.17;90.14;99247.36;1767782;81;21473;-83
2022/08/30 05:21:25;;;;;;;21.40;11.70;;;;;;;19.20;90.32;99235.34;1770488;81;21027;-82
2022/08/30 05:23:58;;;;;;;21.17;11.93;;;;;;;19.27;90.55;99241.09;1736674;82;20997;-82
2022/08/30 05:26:29;;;;;;;26.57;13.13;;;;;;;19.40;91.11;99251.78;1755635;82;21509;-83
2022/08/30 05:28:56;;;;;;;24.47;13.55;;;;;;;19.48;90.61;99242.94;1811450;78;21015;-82
2022/08/30 05:31:30;;;;;;;20.80;12.13;;;;;;;19.53;90.44;99250.56;1795356;79;21535;-82
2022/08/30 05:33:57;;;;;;;19.62;12.37;;;;;;;19.61;90.56;99255.75;1778721;80;21004;-82
2022/08/30 05:36:27;;;;;;;17.87;11.33;;;;;;;19.70;89.68;99251.73;1778610;81;20954;-82
2022/08/30 05:38:55;;;;;;;16.50;10.82;;;;;;;19.75;89.57;99256.27;1764948;81;21015;-82
2022/08/30 05:41:24;;;;;;;20.75;11.28;;;;;;;19.79;89.67;99247.71;1765699;81;20976;-82
2022/08/30 05:43:56;;;;;;;22.70;10.72;;;;;;;19.89;89.08;99248.00;1734760;81;21050;-83
2022/08/30 05:46:23;;;;;;;17.55;10.48;;;;;;;19.94;89.09;99250.74;1778687;79;21088;-83
2022/08/30 05:48:50;;;;;;;17.60;9.78;;;;;;;20.06;88.75;99247.34;1756939;81;20955;-83
2022/08/30 05:51:23;;;;;;;18.05;10.10;;;;;;;20.16;87.93;99256.86;1766286;80;21019;-81
2022/08/30 05:53:52;;;;;;;16.82;10.28;;;;;;;20.16;87.86;99259.98;1778626;81;20987;-82
2022/08/30 05:56:23;;;;;;;18.27;10.23;;;;;;;20.19;87.82;99257.13;1730336;81;21023;-81
2022/08/30 05:58:50;;;;;;;14.25;8.75;;;;;;;20.20;87.32;99255.72;1763061;81;21630;-82
2022/08/30 06:01:28;;;;;;;16.67;9.78;;;;;;;20.25;87.03;99256.75;1728118;82;21052;-82
2022/08/30 06:03:57;;;;;;;18.40;11.33;;;;;;;20.31;86.88;99256.36;1709572;81;21074;-80
2022/08/30 06:06:24;;;;;;;20.72;11.55;;;;;;;20.37;86.51;99248.08;1772854;79;21009;-82
2022/08/30 06:08:52;;;;;;;20.10;11.88;;;;;;;20.42;86.36;99248.63;1776338;79;21632;-83
2022/08/30 06:11:22;;;;;;;19.45;11.18;;;;;;;20.51;86.07;99251.14;1779749;79;20983;-81
2022/08/30 06:13:50;;;;;;;18.62;10.68;;;;;;;20.57;85.04;99243.30;1770546;79;21104;-81
2022/08/30 06:16:20;;;;;;;17.87;10.55;;;;;;;20.59;84.77;99245.41;1774003;79;21045;-83
2022/08/30 06:18:48;;;;;;;21.95;11.48;;;;;;;20.59;84.63;99242.31;1749008;79;21000;-81
2022/08/30 06:21:25;;;;;;;17.20;10.15;;;;;;;20.60;85.35;99244.47;1772366;81;21009;-82
2022/08/30 06:23:53;;;;;;;19.30;10.30;;;;;;;20.66;84.80;99241.44;1740121;81;21025;-83
2022/08/30 06:26:20;;;;;;;15.00;9.80;;;;;;;20.72;84.23;99241.52;1778144;81;21042;-82
2022/08/30 06:28:48;;;;;;;15.43;9.50;;;;;;;20.78;84.26;99242.44;1775117;79;20995;-84
2022/08/30 06:31:17;;;;;;;22.00;9.88;;;;;;;20.86;83.92;99246.75;1741290;82;20995;-81
2022/08/30 06:33:44;;;;;;;18.48;9.23;;;;;;;20.91;83.64;99242.47;1751930;80;21109;-84
2022/08/30 06:36:15;;;;;;;17.62;9.35;;;;;;;20.97;83.76;99242.94;1749879;82;20981;-83
2022/08/30 06:38:44;;;;;;;15.98;8.93;;;;;;;21.13;83.50;99244.55;1765078;79;21435;-81
2022/08/30 06:41:18;;;;;;;15.98;9.10;;;;;;;21.23;83.50;99246.98;1781743;79;21528;-83
2022/08/30 06:43:46;;;;;;;15.43;10.60;;;;;;;21.39;83.00;99245.48;1755496;80;21033;-82
2022/08/30 06:46:17;;;;;;;17.32;10.38;;;;;;;21.43;82.15;99244.34;1776939;79;21101;-81
2022/08/30 06:48:44;;;;;;;17.07;10.03;;;;;;;21.51;81.49;99249.13;1752916;79;21574;-82
2022/08/30 06:51:11;;;;;;;16.90;10.88;;;;;;;21.51;81.19;99248.64;1753447;80;21333;-86
2022/08/30 06:53:38;;;;;;;24.77;11.40;;;;;;;21.56;81.06;99247.83;1712399;82;21043;-83
2022/08/30 06:56:08;;;;;;;23.02;11.08;;;;;;;21.68;80.85;99248.80;1691595;83;21023;-83
2022/08/30 06:58:37;;;;;;;20.08;10.53;;;;;;;21.80;80.45;99249.27;1684257;83;21317;-82
2022/08/30 07:01:06;;;;;;;16.65;9.33;;;;;;;21.87;80.10;99252.36;1685660;84;20992;-81
2022/08/30 07:03:34;;;;;;;15.83;9.30;;;;;;;21.93;79.61;99250.61;1691845;84;21012;-82
2022/08/30 07:06:01;;;;;;;18.82;10.68;;;;;;;22.02;79.69;99249.98;1692108;84;21024;-82
2022/08/30 07:08:28;;;;;;;22.70;10.00;;;;;;;22.16;79.25;99249.45;1713748;84;21041;-82
2022/08/30 07:10:55;;;;;;;17.95;10.10;;;;;;;22.27;79.06;99246.94;1701877;84;21104;-80
2022/08/30 07:13:22;;;;;;;18.75;10.03;;;;;;;22.36;78.69;99244.10;1699826;83;21008;-82
2022/08/30 07:15:50;;;;;;;13.78;8.18;;;;;;;22.46;78.53;99241.64;1704351;84;21036;-81
2022/08/30 07:21:14;;;;;;;18.62;7.87;;;;;;;22.67;78.10;99245.39;1702145;84;21072;-80
2022/08/30 07:23:43;;;;;;;15.38;9.20;;;;;;;22.78;77.98;99245.47;1701560;84;21531;-80
2022/08/30 07:26:13;;;;;;;16.02;9.18;;;;;;;22.90;76.94;99251.67;1697380;83;21047;-80
2022/08/30 07:28:43;;;;;;;15.98;9.10;;;;;;;23.01;76.92;99254.84;1704757;82;20960;-82
2022/08/30 07:31:12;;;;;;;18.98;8.98;;;;;;;23.11;75.44;99257.20;1702372;84;21071;-80
2022/08/30 07:33:42;;;;;;;17.77;9.63;;;;;;;23.17;75.50;99258.56;1701844;84;21075;-82
2022/08/30 07:36:09;;;;;;;20.27;10.98;;;;;;;23.26;74.55;99253.91;1703776;84;21071;-83
2022/08/30 07:38:35;;;;;;;20.05;10.45;;;;;;;23.35;74.75;99260.31;1702147;84;21042;-82
2022/08/30 07:41:03;;;;;;;16.97;9.05;;;;;;;23.43;74.53;99256.10;1695479;84;21040;-80
2022/08/30 07:43:35;;;;;;;17.62;9.53;;;;;;;23.53;73.66;99258.91;1705547;82;20996;-80
2022/08/30 07:46:06;;;;;;;10.82;8.20;;;;;;;23.61;72.87;99263.14;1703831;83;21075;-79
2022/08/30 07:48:34;;;;;;;15.40;8.58;;;;;;;23.72;72.72;99264.16;1702102;84;21028;-81
2022/08/30 07:51:03;;;;;;;19.25;9.18;;;;;;;23.76;72.02;99269.09;1752724;80;21051;-80
2022/08/30 07:53:30;;;;;;;15.78;8.75;;;;;;;23.79;71.54;99262.73;1745383;81;20984;-81
2022/08/30 07:55:57;;;;;;;18.12;7.97;;;;;;;23.84;71.03;99272.52;1736376;81;21087;-81
2022/08/30 07:58:23;;;;;;;12.95;8.25;;;;;;;23.85;71.45;99274.20;1732580;81;21019;-81
2022/08/30 08:00:50;;;;;;;15.45;7.62;;;;;;;23.93;71.25;99272.28;1739494;81;21082;-82
2022/08/30 08:03:18;;;;;;;11.22;7.22;;;;;;;24.01;71.60;99270.74;1736286;82;21516;-80
2022/08/30 08:05:45;;;;;;;17.98;7.22;;;;;;;24.15;71.24;99264.34;1731709;81;21137;-79
2022/08/30 08:08:13;;;;;;;17.20;8.28;;;;;;;24.25;70.04;99265.77;1746327;81;21477;-80
2022/08/30 08:10:41;;;;;;;15.70;7.70;;;;;;;24.39;70.56;99269.98;1730951;81;20944;-81
2022/08/30 08:13:08;;;;;;;14.47;8.60;;;;;;;24.51;69.66;99269.52;1747006;79;21080;-81
2022/08/30 08:15:36;;;;;;;16.57;8.28;;;;;;;24.64;69.93;99264.91;1738744;81;21210;-80
2022/08/30 08:18:03;;;;;;;14.85;8.33;;;;;;;24.78;69.31;99266.45;1742138;80;21026;-80
2022/08/30 08:20:32;;;;;;;15.78;8.98;;;;;;;24.89;69.26;99261.12;1739502;81;21046;-81
2022/08/30 08:22:59;;;;;;;18.40;7.80;;;;;;;25.01;68.90;99259.27;1747739;81;21506;-80
2022/08/30 08:25:27;;;;;;;13.90;8.05;;;;;;;25.14;68.33;99267.06;1746959;81;20995;-81
2022/08/30 08:27:54;;;;;;;16.62;7.90;;;;;;;25.20;67.40;99262.56;1746238;81;21003;-81
2022/08/30 08:30:22;;;;;;;14.47;8.43;;;;;;;25.26;67.10;99262.57;1740601;80;21018;-81
2022/08/30 08:32:49;;;;;;;19.65;8.80;;;;;;;25.35;66.45;99256.48;1761478;80;20979;-81
2022/08/30 08:35:17;;;;;;;15.10;8.15;;;;;;;25.44;66.15;99254.86;1755703;80;21023;-80
2022/08/30 08:37:44;;;;;;;14.83;7.85;;;;;;;25.50;66.02;99257.84;1736053;82;20967;-80
2022/08/30 08:40:15;;;;;;;16.25;7.90;;;;;;;25.57;64.91;99252.36;1730451;81;20998;-80
2022/08/30 08:42:56;;;;;;;18.73;8.80;;;;;;;25.58;64.81;99253.20;1764496;80;21041;-80
2022/08/30 08:45:54;;;;;;;15.00;8.38;;;;;;;25.63;63.60;99248.83;1808737;78;21522;-80
2022/08/30 08:48:41;;;;;;;12.05;8.00;;;;;;;25.64;63.86;99247.84;1754789;80;20979;-80
2022/08/30 08:54:19;;;;;;;14.28;8.33;;;;;;;25.65;61.86;99249.05;1753674;80;20976;-81
2022/08/30 08:56:46;;;;;;;13.43;8.38;;;;;;;25.70;62.94;99242.83;1742996;81;21055;-81
2022/08/30 08:59:15;;;;;;;13.98;8.23;;;;;;;25.74;62.38;99240.75;1737008;81;21633;-80
2022/08/30 09:01:42;;;;;;;15.45;9.18;;;;;;;25.77;62.15;99240.50;1743222;81;20975;-80
2022/08/30 09:04:16;;;;;;;18.65;8.80;;;;;;;25.88;63.00;99235.07;1761125;80;21045;-79
2022/08/30 09:07:00;;;;;;;12.47;7.47;;;;;;;26.01;62.45;99241.56;1745413;80;20948;-80
2022/08/30 09:09:34;;;;;;;10.90;7.95;;;;;;;26.15;61.79;99233.70;1770479;80;21518;-79
2022/08/30 09:12:03;;;;;;;11.80;7.70;;;;;;;26.23;61.63;99233.86;1736440;82;20987;-80
2022/08/30 09:14:36;;;;;;;16.10;8.53;;;;;;;26.30;61.19;99238.14;1733088;82;21006;-81
2022/08/30 09:17:14;;;;;;;16.60;7.58;;;;;;;26.31;60.40;99235.36;1763956;80;20951;-80
2022/08/30 09:19:54;;;;;;;14.15;7.90;;;;;;;26.37;60.34;99233.48;1748443;80;21018;-81
2022/08/30 09:22:37;;;;;;;14.47;7.72;;;;;;;26.45;60.29;99233.30;1728847;82;20991;-80
2022/08/30 09:25:21;;;;;;;18.20;7.95;;;;;;;26.49;60.10;99230.21;1745453;81;20960;-80
2022/08/30 09:27:51;;;;;;;12.78;7.72;;;;;;;26.52;58.95;99232.62;1759365;81;21022;-81
2022/08/30 09:30:28;;;;;;;12.00;7.47;;;;;;;26.53;59.27;99222.29;1758198;81;20948;-81
2022/08/30 09:32:59;;;;;;;11.57;7.28;;;;;;;26.58;59.52;99224.56;1753029;81;21044;-81
2022/08/30 09:35:39;;;;;;;10.58;6.97;;;;;;;26.64;59.64;99222.71;1807128;78;21637;-80
2022/08/30 09:38:26;;;;;;;14.07;7.90;;;;;;;26.75;58.44;99218.56;1803744;79;21055;-80
2022/08/30 09:40:57;;;;;;;11.88;7.05;;;;;;;26.92;59.31;99215.71;1797253;79;21016;-80
2022/08/30 09:43:29;;;;;;;12.18;7.30;;;;;;;27.07;58.49;99204.61;1810364;78;21526;-80
2022/08/30 09:46:04;;;;;;;10.63;7.47;;;;;;;27.15;58.03;99202.91;1808374;78;21042;-81
2022/08/30 09:48:42;;;;;;;11.00;6.70;;;;;;;27.23;58.04;99196.03;1813893;78;21005;-80
2022/08/30 09:51:23;;;;;;;11.05;6.72;;;;;;;27.29;57.34;99191.48;1815246;78;20988;-80
2022/08/30 09:54:25;;;;;;;12.03;7.42;;;;;;;27.43;57.14;99187.52;1819065;78;21037;-81
2022/08/30 09:57:02;;;;;;;12.55;6.72;;;;;;;27.54;56.34;99186.03;1804213;78;21045;-81
2022/08/30 09:59:49;;;;;;;12.90;6.65;;;;;;;27.65;55.21;99178.32;1812005;77;21280;-81
2022/08/30 10:02:27;;;;;;;11.45;6.85;;;;;;;27.71;55.84;99167.05;1807006;77;20975;-81
2022/08/30 10:05:18;;;;;;;11.00;6.60;;;;;;;27.89;56.08;99159.97;1776421;77;20998;-80
2022/08/30 10:07:57;;;;;;;11.63;6.53;;;;;;;28.09;56.01;99162.55;1759871;81;20995;-79
2022/08/30 10:10:51;;;;;;;10.70;6.62;;;;;;;28.33;55.08;99156.63;1767901;81;21008;-80
2022/08/30 10:14:04;;;;;;;13.68;7.00;;;;;;;28.48;55.14;99151.62;1768613;80;21035;-81
2022/08/30 10:16:52;;;;;;;;;;;;;;;28.61;54.70;99149.45;1742566;82;20966;-81
2022/08/30 10:19:53;;;;;;;13.50;8.00;;;;;;;28.71;52.25;99156.90;1756677;80;20614;-81
2022/08/30 10:22:45;;;;;;;12.18;6.95;;;;;;;28.87;54.44;99148.65;1749291;81;21053;-80
2022/08/30 10:25:29;;;;;;;12.75;7.00;;;;;;;28.93;53.37;99133.34;1795872;78;20983;-82
2022/08/30 10:28:25;;;;;;;13.80;7.60;;;;;;;28.95;52.72;99135.36;1757136;81;20966;-81
2022/08/30 10:31:02;;;;;;;10.85;7.03;;;;;;;28.88;51.63;99135.62;1763596;80;21033;-81
2022/08/30 10:33:41;;;;;;;14.45;7.17;;;;;;;28.95;50.93;99133.52;1705453;82;21047;-81
2022/08/30 10:36:13;;;;;;;11.53;7.08;;;;;;;29.06;50.43;99139.11;1755241;82;21021;-81
2022/08/30 10:38:47;;;;;;;16.52;7.17;;;;;;;29.02;50.71;99131.55;1753049;81;21022;-80
2022/08/30 10:41:38;;;;;;;10.65;6.58;;;;;;;29.09;51.19;99124.59;1750949;81;21407;-79
2022/08/30 10:44:16;;;;;;;10.23;6.62;;;;;;;29.25;51.19;99122.05;1758404;80;21030;-80
2022/08/30 10:47:13;;;;;;;10.90;6.37;;;;;;;29.48;51.31;99115.64;1784310;79;21047;-81
2022/08/30 10:49:44;;;;;;;10.60;7.08;;;;;;;29.63;48.62;99117.75;1756353;80;21031;-80
2022/08/30 10:52:36;;;;;;;9.40;6.55;;;;;;;29.67;48.44;99118.59;1809957;78;21034;-80
2022/08/30 10:55:25;;;;;;;11.35;6.72;;;;;;;29.70;48.83;99118.25;1811909;79;21526;-80
2022/08/30 10:57:52;;;;;;;12.18;7.15;;;;;;;29.85;49.14;99111.00;1812523;77;21004;-80
2022/08/30 11:00:27;;;;;;;14.95;7.08;;;;;;;29.98;48.15;99114.55;1782776;79;20976;-80
2022/08/30 11:03:14;;;;;;;13.22;6.65;;;;;;;30.05;48.25;99110.23;1766562;79;20975;-79
2022/08/30 11:06:04;;;;;;;11.80;6.58;;;;;;;30.12;47.64;99111.23;1774502;79;21037;-80
2022/08/30 11:09:10;;;;;;;10.63;6.90;;;;;;;30.32;48.02;99111.33;1746247;81;20987;-81
2022/08/30 11:12:13;;;;;;;11.48;6.65;;;;;;;30.54;47.44;99099.63;1764683;79;20926;-79
2022/08/30 11:14:42;;;;;;;14.98;6.55;;;;;;;30.78;46.66;99095.24;1703637;83;21051;-79
2022/08/30 11:17:34;;;;;;;17.05;6.55;;;;;;;30.92;47.06;99094.11;1717158;82;21554;-79
2022/08/30 11:20:03;;;;;;;9.23;6.12;;;;;;;31.14;46.29;99091.73;1747058;80;21576;-79
2022/08/30 11:22:37;;;;;;;11.28;6.40;;;;;;;31.33;46.82;99081.09;1762201;81;20983;-79
2022/08/30 11:25:16;;;;;;;11.68;6.30;;;;;;;31.55;46.63;99084.08;1814670;79;21003;-79
2022/08/30 11:27:55;;;;;;;11.28;6.20;;;;;;;31.84;46.12;99080.26;1785554;79;20988;-78
2022/08/30 11:30:31;;;;;;;10.85;6.30;;;;;;;32.18;45.38;99077.73;1805287;77;21000;-79
2022/08/30 11:33:11;;;;;;;10.68;6.20;;;;;;;32.38;44.78;99070.03;1808833;79;20980;-79
2022/08/30 11:35:49;;;;;;;12.13;6.35;;;;;;;32.60;44.29;99058.95;1813951;78;21042;-79
2022/08/30 11:38:30;;;;;;;12.50;6.53;;;;;;;32.65;43.91;99053.88;1765777;79;21071;-79
2022/08/30 11:41:10;;;;;;;13.00;8.50;;;;;;;32.89;42.74;99041.20;1765756;81;21599;-78
2022/08/30 11:43:45;;;;;;;12.25;6.47;;;;;;;32.98;42.79;99051.38;1784751;79;21492;-79
2022/08/30 11:46:27;;;;;;;9.35;6.05;;;;;;;33.21;42.52;99060.77;1787583;79;20637;-79
2022/08/30 11:49:14;;;;;;;9.70;6.40;;;;;;;33.45;40.29;99065.86;1773627;79;20982;-78